MET'MAP v2.0
soon released !

Expected late october,
this new version will be
more efficient, smarter,
and hosted on a brand new
server x3 powerfull...
...and still free !


Not compatible ?
Try the mobile version !

LOG IN : | Subscribe | Disclaimer | Who is Orbifly ? |
ICAO code :

TAF - LBSF Sofia Int. - 02 Jun 2020 05:09 UTC - Data Source NOAA   


- Airport Elevation : 1742 ft
- IATA code : SOF
- No reported NOTAMs.


LBSF - Sofia Int.

Latest METAR recorded : 2015/08/11 08:00 LBSF 110800Z 10003KT 050V160 CAVOK 25/10 Q1015 NOSIG
TAF TAF LBSF
Valid from the 02 at 00:00 until the 03 at 00:00 UTC


012300Z 0200/0224 28010KT 9999 SCT020 SCT060
TEMPO 0208/0216 4000 SHRA FEW030CB BKN050
PROB30 0211/0214 VRB16G26KT 3000 TSRA FEW012 SCT030CB BKN040
TEMPO 0215/0220 30016G26KT

Source NOAA


MET'MAP, your aeronautical weather chart ! - Copyright ORBIFLY December 2007

Programming & Development : Alexandra Zaïnal
Co-Developer : Marc-Olivier Méhu
Technical & hardware support : Manuel Goepfert
Concept & Financing : Baudouin d'Aumeries